Aaron Joseph — WCV9877 — position and weather

sailwx.info

Track history (hours):
 
Tides and Currents Weather Stations Pressure Air Temp Water Temp Dewpoint Dewpoint Depression Visibility Wind Speed Wind Dir Waves Ship Positions

Aaron Joseph

Owner: AARON JOSEPH INC, GOLDEN MEADOW, LA. More information available from US FCC via Universal Licensing System and Coast Guard Vessel Documentation Center.

Last reported at 2015-Jan-27 05:24 UTC. Time now 2015-Jan-27 05:46 UTC.
Position N 29°48' W 095°04'.

; draft 2.5 m.

Type: Tug. MMSI: 367028680.

Date/timePositionNaut miles runAvg speedWind from/ knotsBaromVisibWave heightAir tempDewpointWater temp
2015-Jan-27 05:24N 29°48' W 095°04'0 0.0
2015-Jan-27 04:12N 29°48' W 095°04'0 0.1
2015-Jan-27 00:33N 29°47' W 095°04'0 0.3
2015-Jan-26 23:33N 29°48' W 095°04'0 0.0
2015-Jan-26 22:33N 29°48' W 095°04'0 0.0
2015-Jan-26 21:33N 29°48' W 095°04'0 0.0
2015-Jan-26 20:23N 29°48' W 095°04'0 0.0
2015-Jan-26 19:34N 29°48' W 095°04'0 0.0
2015-Jan-26 18:33N 29°48' W 095°04'0 0.0
2015-Jan-26 17:34N 29°48' W 095°04'0 0.0
2015-Jan-26 16:34N 29°48' W 095°04'0 0.0
2015-Jan-26 15:34N 29°48' W 095°04'0 0.0
2015-Jan-26 14:33N 29°48' W 095°04'0 0.0
2015-Jan-26 13:33N 29°48' W 095°04'1 0.1
2015-Jan-26 01:34N 29°46' W 095°05'1 1.4
2015-Jan-26 00:31N 29°48' W 095°04'0 0.0
2015-Jan-25 23:14N 29°48' W 095°04'0 0.0
2015-Jan-25 22:30N 29°48' W 095°04'0 0.0
2015-Jan-25 21:33N 29°48' W 095°04'0 0.0
2015-Jan-25 20:25N 29°48' W 095°04'0 0.0
2015-Jan-25 19:31N 29°48' W 095°04'0 0.0
2015-Jan-25 18:34N 29°48' W 095°04'0 0.0
2015-Jan-25 17:31N 29°48' W 095°04'0 0.0
2015-Jan-25 16:16N 29°48' W 095°04'0 0.0
2015-Jan-25 15:34N 29°48' W 095°04'0 0.0
2015-Jan-25 14:33N 29°48' W 095°04'2 2.2
2015-Jan-25 13:34N 29°47' W 095°06'0 0.0
2015-Jan-25 12:33N 29°47' W 095°06'0 0.0
2015-Jan-25 11:34N 29°47' W 095°06'0 0.0
2015-Jan-25 10:33N 29°47' W 095°06'0 0.0
2015-Jan-25 09:34N 29°47' W 095°06'0 0.0
2015-Jan-25 08:33N 29°47' W 095°06'0 0.0
2015-Jan-25 07:34N 29°47' W 095°06'0 0.0
2015-Jan-25 06:33N 29°47' W 095°06'0 0.0
2015-Jan-25 05:34N 29°47' W 095°06'0 0.0
2015-Jan-25 04:05N 29°47' W 095°06'0 0.0
2015-Jan-25 03:33N 29°47' W 095°06'0 0.0
2015-Jan-25 02:31N 29°47' W 095°06'0 0.0
2015-Jan-25 01:33N 29°47' W 095°06'0 0.3
2015-Jan-25 00:19N 29°46' W 095°06'2 2.4
2015-Jan-24 23:20N 29°48' W 095°04'0 0.0
2015-Jan-24 22:27N 29°48' W 095°04'0 0.0
2015-Jan-24 21:33N 29°48' W 095°04'0 0.0
2015-Jan-24 20:28N 29°48' W 095°04'0 0.0
2015-Jan-24 19:31N 29°48' W 095°04'0 0.0
2015-Jan-24 18:34N 29°47' W 095°04'0 0.0
2015-Jan-24 17:33N 29°47' W 095°04'0 0.0
2015-Jan-24 16:31N 29°48' W 095°04'0 0.2
2015-Jan-24 15:34N 29°47' W 095°04'4 3.9
2015-Jan-24 14:33N 29°44' W 095°02'6 5.8
2015-Jan-24 13:33N 29°39' W 094°58'6 6.3
2015-Jan-24 12:34N 29°33' W 094°55'6 5.9
2015-Jan-24 11:34N 29°28' W 094°51'  
Track history (hours):
 
Tides and Currents Weather Stations Pressure Air Temp Water Temp Dewpoint Dewpoint Depression Visibility Wind Speed Wind Dir Waves Ship Positions

Aaron Joseph

Owner: AARON JOSEPH INC, GOLDEN MEADOW, LA. More information available from US FCC via Universal Licensing System and Coast Guard Vessel Documentation Center.

Last reported at 2015-Jan-27 05:24 UTC. Time now 2015-Jan-27 05:46 UTC.
Position N 29°48' W 095°04'.

; draft 2.5 m.

Type: Tug. MMSI: 367028680.

Date/timePositionNaut miles runAvg speedWind from/ knotsBaromVisibWave heightAir tempDewpointWater temp
2015-Jan-27 05:24N 29°48' W 095°04'0 0.0
2015-Jan-27 04:12N 29°48' W 095°04'0 0.1
2015-Jan-27 00:33N 29°47' W 095°04'0 0.3
2015-Jan-26 23:33N 29°48' W 095°04'0 0.0
2015-Jan-26 22:33N 29°48' W 095°04'0 0.0
2015-Jan-26 21:33N 29°48' W 095°04'0 0.0
2015-Jan-26 20:23N 29°48' W 095°04'0 0.0
2015-Jan-26 19:34N 29°48' W 095°04'0 0.0
2015-Jan-26 18:33N 29°48' W 095°04'0 0.0
2015-Jan-26 17:34N 29°48' W 095°04'0 0.0
2015-Jan-26 16:34N 29°48' W 095°04'0 0.0
2015-Jan-26 15:34N 29°48' W 095°04'0 0.0
2015-Jan-26 14:33N 29°48' W 095°04'0 0.0
2015-Jan-26 13:33N 29°48' W 095°04'1 0.1
2015-Jan-26 01:34N 29°46' W 095°05'1 1.4
2015-Jan-26 00:31N 29°48' W 095°04'0 0.0
2015-Jan-25 23:14N 29°48' W 095°04'0 0.0
2015-Jan-25 22:30N 29°48' W 095°04'0 0.0
2015-Jan-25 21:33N 29°48' W 095°04'0 0.0
2015-Jan-25 20:25N 29°48' W 095°04'0 0.0
2015-Jan-25 19:31N 29°48' W 095°04'0 0.0
2015-Jan-25 18:34N 29°48' W 095°04'0 0.0
2015-Jan-25 17:31N 29°48' W 095°04'0 0.0
2015-Jan-25 16:16N 29°48' W 095°04'0 0.0
2015-Jan-25 15:34N 29°48' W 095°04'0 0.0
2015-Jan-25 14:33N 29°48' W 095°04'2 2.2
2015-Jan-25 13:34N 29°47' W 095°06'0 0.0
2015-Jan-25 12:33N 29°47' W 095°06'0 0.0
2015-Jan-25 11:34N 29°47' W 095°06'0 0.0
2015-Jan-25 10:33N 29°47' W 095°06'0 0.0
2015-Jan-25 09:34N 29°47' W 095°06'0 0.0
2015-Jan-25 08:33N 29°47' W 095°06'0 0.0
2015-Jan-25 07:34N 29°47' W 095°06'0 0.0
2015-Jan-25 06:33N 29°47' W 095°06'0 0.0
2015-Jan-25 05:34N 29°47' W 095°06'0 0.0
2015-Jan-25 04:05N 29°47' W 095°06'0 0.0
2015-Jan-25 03:33N 29°47' W 095°06'0 0.0
2015-Jan-25 02:31N 29°47' W 095°06'0 0.0
2015-Jan-25 01:33N 29°47' W 095°06'0 0.3
2015-Jan-25 00:19N 29°46' W 095°06'2 2.4
2015-Jan-24 23:20N 29°48' W 095°04'0 0.0
2015-Jan-24 22:27N 29°48' W 095°04'0 0.0
2015-Jan-24 21:33N 29°48' W 095°04'0 0.0
2015-Jan-24 20:28N 29°48' W 095°04'0 0.0
2015-Jan-24 19:31N 29°48' W 095°04'0 0.0
2015-Jan-24 18:34N 29°47' W 095°04'0 0.0
2015-Jan-24 17:33N 29°47' W 095°04'0 0.0
2015-Jan-24 16:31N 29°48' W 095°04'0 0.2
2015-Jan-24 15:34N 29°47' W 095°04'4 3.9
2015-Jan-24 14:33N 29°44' W 095°02'6 5.8
2015-Jan-24 13:33N 29°39' W 094°58'6 6.3
2015-Jan-24 12:34N 29°33' W 094°55'6 5.9
2015-Jan-24 11:34N 29°28' W 094°51'  

Dump ship's entire track history